Time;durP1;ratioP1;P1;durP2;ratioP2;P2;SDS_P1;SDS_P2;PMS_P1;PMS_P2;Temp;Humidity;BMP_temperature;BMP_pressure;BME280_temperature;BME280_humidity;BME280_pressure;Samples;Min_cycle;Max_cycle;Signal;HPM_P1;HPM_P2
2021/05/02 00:00:12;;;;;;;7.30;4.28;;;17.10;78.00;;;;;;5014870;28;20398;-62
2021/05/02 00:02:37;;;;;;;5.45;3.80;;;17.10;78.10;;;;;;5015262;28;20025;-62
2021/05/02 00:05:05;;;;;;;6.70;4.15;;;17.10;78.40;;;;;;5015424;28;20026;-62
2021/05/02 00:07:31;;;;;;;13.90;6.68;;;17.10;78.30;;;;;;5014948;28;20036;-62
2021/05/02 00:09:57;;;;;;;12.25;6.13;;;17.10;78.90;;;;;;5014443;28;20026;-62
2021/05/02 00:12:24;;;;;;;13.73;6.63;;;17.10;79.30;;;;;;5032158;28;20033;-63
2021/05/02 00:14:49;;;;;;;13.23;5.25;;;17.10;80.00;;;;;;5034376;28;20026;-63
2021/05/02 00:17:16;;;;;;;8.35;4.10;;;17.10;80.30;;;;;;5034157;28;20482;-63
2021/05/02 00:19:43;;;;;;;8.35;4.25;;;17.10;80.50;;;;;;5034069;28;20061;-63
2021/05/02 00:22:09;;;;;;;10.38;3.97;;;17.10;80.80;;;;;;5034262;28;20079;-63
2021/05/02 00:24:35;;;;;;;10.30;4.55;;;17.00;80.80;;;;;;5034293;28;20094;-63
2021/05/02 00:27:02;;;;;;;8.65;4.90;;;16.90;81.40;;;;;;5033794;28;20025;-63
2021/05/02 00:29:29;;;;;;;8.68;4.22;;;16.90;81.60;;;;;;5034454;28;20025;-63
2021/05/02 00:31:55;;;;;;;10.15;5.38;;;16.80;81.80;;;;;;5026905;28;20018;-63
2021/05/02 00:34:23;;;;;;;17.15;6.40;;;16.80;82.00;;;;;;5014541;28;20105;-63
2021/05/02 00:36:49;;;;;;;15.88;6.53;;;16.70;82.50;;;;;;5014529;28;20497;-63
2021/05/02 00:39:15;;;;;;;17.35;7.03;;;16.70;82.60;;;;;;5024020;28;20099;-63
2021/05/02 00:41:42;;;;;;;21.40;7.75;;;16.60;82.80;;;;;;5022261;28;20544;-63
2021/05/02 00:44:31;;;;;;;19.90;7.78;;;16.50;83.50;;;;;;5014422;28;20033;-63
2021/05/02 00:47:03;;;;;;;15.48;7.47;;;16.40;83.90;;;;;;5013981;28;20029;-63
2021/05/02 00:49:47;;;;;;;18.02;8.77;;;16.50;84.40;;;;;;5014667;28;20030;-63
2021/05/02 00:52:35;;;;;;;17.75;7.38;;;16.40;84.40;;;;;;5014703;28;20041;-63
2021/05/02 00:55:05;;;;;;;11.80;7.00;;;16.50;84.10;;;;;;5015484;28;20056;-63
2021/05/02 00:57:41;;;;;;;16.83;7.55;;;16.50;84.20;;;;;;5014289;28;20053;-63
2021/05/02 01:00:09;;;;;;;16.02;8.43;;;16.40;84.10;;;;;;5014750;28;20034;-63
2021/05/02 01:02:36;;;;;;;12.63;6.82;;;16.40;84.30;;;;;;5014452;28;20359;-63
2021/05/02 01:05:07;;;;;;;14.57;7.85;;;16.30;84.10;;;;;;5014587;28;20022;-63
2021/05/02 01:07:40;;;;;;;;;;;16.20;84.10;;;;;;5014731;28;20419;-63
2021/05/02 01:10:11;;;;;;;13.35;6.50;;;16.10;84.20;;;;;;5014620;28;19909;-62
2021/05/02 01:12:48;;;;;;;11.88;6.38;;;16.00;84.50;;;;;;5013965;28;20037;-63
2021/05/02 01:15:20;;;;;;;12.32;5.95;;;15.90;84.80;;;;;;5014375;28;20500;-63
2021/05/02 01:17:52;;;;;;;10.75;5.85;;;15.90;85.30;;;;;;5030777;28;20072;-63
2021/05/02 01:20:18;;;;;;;9.25;5.30;;;15.80;85.80;;;;;;5033769;28;20416;-63
2021/05/02 01:22:45;;;;;;;11.75;6.15;;;15.80;86.00;;;;;;5033478;28;20025;-63
2021/05/02 01:25:12;;;;;;;9.15;5.38;;;15.80;86.20;;;;;;5033592;28;20018;-63
2021/05/02 01:27:39;;;;;;;10.60;5.50;;;15.80;86.30;;;;;;5033494;28;20481;-63
2021/05/02 01:30:09;;;;;;;9.77;5.10;;;15.80;86.30;;;;;;5033150;28;20030;-63
2021/05/02 01:32:35;;;;;;;6.78;4.18;;;15.80;86.40;;;;;;5020952;28;20117;-63
2021/05/02 01:35:02;;;;;;;7.60;4.35;;;15.80;86.30;;;;;;5013795;28;20041;-63
2021/05/02 01:37:28;;;;;;;6.15;4.13;;;15.70;86.40;;;;;;5013763;28;20488;-63
2021/05/02 01:39:54;;;;;;;5.68;3.85;;;15.70;86.80;;;;;;5030893;28;20017;-63
2021/05/02 01:42:20;;;;;;;4.55;3.50;;;15.70;86.80;;;;;;5037653;28;20017;-63
2021/05/02 01:44:45;;;;;;;4.45;3.58;;;15.70;87.10;;;;;;5021147;28;20026;-63
2021/05/02 01:47:18;;;;;;;6.25;3.47;;;15.70;87.20;;;;;;5017707;28;20076;-63
2021/05/02 01:49:52;;;;;;;5.05;3.40;;;15.60;87.20;;;;;;5017651;28;20033;-63
2021/05/02 01:52:18;;;;;;;3.67;2.95;;;15.60;87.10;;;;;;5017675;28;20046;-63
2021/05/02 01:54:45;;;;;;;4.55;3.45;;;15.60;87.10;;;;;;5018056;28;20072;-62
2021/05/02 01:57:17;;;;;;;5.32;3.30;;;15.60;87.10;;;;;;5018257;28;20021;-63
2021/05/02 01:59:44;;;;;;;3.78;2.95;;;15.60;87.80;;;;;;5018419;28;20033;-62
2021/05/02 02:02:11;;;;;;;3.40;2.70;;;15.50;87.30;;;;;;5018192;28;20477;-63
2021/05/02 02:04:40;;;;;;;3.88;3.08;;;15.50;87.50;;;;;;5017451;28;20489;-63
2021/05/02 02:07:07;;;;;;;4.97;3.08;;;15.50;87.60;;;;;;5017855;28;20385;-63
2021/05/02 02:09:32;;;;;;;4.07;3.13;;;15.50;87.80;;;;;;5017603;28;20478;-63
2021/05/02 02:12:00;;;;;;;3.95;3.22;;;15.50;88.00;;;;;;5021277;28;20030;-63
2021/05/02 02:14:26;;;;;;;3.90;3.17;;;15.50;88.30;;;;;;5033093;28;20037;-63
2021/05/02 02:16:52;;;;;;;3.58;3.13;;;15.50;88.30;;;;;;5037089;28;20033;-63
2021/05/02 02:19:18;;;;;;;3.42;3.10;;;15.40;88.30;;;;;;5037028;28;20076;-63
2021/05/02 02:21:45;;;;;;;4.40;3.30;;;15.50;88.50;;;;;;5036679;28;20021;-63
2021/05/02 02:24:12;;;;;;;3.80;3.10;;;15.50;88.50;;;;;;5037511;28;20076;-63
2021/05/02 02:26:49;;;;;;;3.92;3.03;;;15.50;88.60;;;;;;5037537;28;20033;-62
2021/05/02 02:29:16;;;;;;;4.15;3.30;;;15.50;88.30;;;;;;5037329;28;20108;-62
2021/05/02 02:31:46;;;;;;;6.28;3.72;;;15.60;88.50;;;;;;5030174;28;20061;-63
2021/05/02 02:34:13;;;;;;;3.47;3.05;;;15.60;88.60;;;;;;5017400;28;20033;-62
2021/05/02 02:36:41;;;;;;;3.72;3.38;;;15.60;88.50;;;;;;5017767;28;20033;-63
2021/05/02 02:39:07;;;;;;;4.93;3.22;;;15.60;88.50;;;;;;5017760;28;20543;-62
2021/05/02 02:41:38;;;;;;;4.95;3.28;;;15.60;88.60;;;;;;5017231;28;20022;-62
2021/05/02 02:44:09;;;;;;;4.07;3.67;;;15.60;88.80;;;;;;5016842;28;20030;-62
2021/05/02 02:46:42;;;;;;;;;;;15.60;88.80;;;;;;5017774;28;20034;-62
2021/05/02 02:49:10;;;;;;;4.93;3.92;;;15.60;88.70;;;;;;5017553;28;20332;-62
2021/05/02 02:51:39;;;;;;;7.00;4.95;;;15.60;88.70;;;;;;5017064;28;20030;-62
2021/05/02 02:54:07;;;;;;;6.45;4.85;;;15.60;88.80;;;;;;5017681;28;20042;-63
2021/05/02 02:56:36;;;;;;;6.97;4.63;;;15.60;88.90;;;;;;5016858;28;20168;-63
2021/05/02 02:59:08;;;;;;;5.20;4.25;;;15.60;89.10;;;;;;5017350;28;20033;-63
2021/05/02 03:01:36;;;;;;;4.43;3.97;;;15.70;89.10;;;;;;5016343;28;20060;-63
2021/05/02 03:04:06;;;;;;;6.05;4.90;;;15.70;89.20;;;;;;5016844;28;20470;-63
2021/05/02 03:06:34;;;;;;;6.95;4.70;;;15.70;89.30;;;;;;5016492;28;20033;-63
2021/05/02 03:09:00;;;;;;;5.22;4.30;;;15.80;89.30;;;;;;5016571;28;20156;-63
2021/05/02 03:11:26;;;;;;;5.63;4.40;;;15.80;89.40;;;;;;5016780;28;20438;-62
2021/05/02 03:13:53;;;;;;;5.50;4.25;;;15.80;89.30;;;;;;5028180;28;20029;-63
2021/05/02 03:16:28;;;;;;;6.43;5.10;;;15.80;89.50;;;;;;5037047;28;20441;-63
2021/05/02 03:19:11;;;;;;;5.65;4.30;;;15.90;89.50;;;;;;5036382;28;20031;-63
2021/05/02 03:22:03;;;;;;;5.90;4.70;;;15.90;89.60;;;;;;5036545;28;20025;-63
2021/05/02 03:24:35;;;;;;;6.95;5.20;;;16.00;89.50;;;;;;5036576;28;20026;-63
2021/05/02 03:27:09;;;;;;;6.97;5.15;;;16.10;89.80;;;;;;5036290;28;20056;-63
2021/05/02 03:29:40;;;;;;;8.18;5.10;;;16.10;89.60;;;;;;5036188;28;20040;-63
2021/05/02 03:32:11;;;;;;;6.10;4.78;;;16.20;89.40;;;;;;5024184;28;20037;-63
2021/05/02 03:34:42;;;;;;;5.50;4.72;;;16.20;89.20;;;;;;5016836;28;20033;-63
2021/05/02 03:37:16;;;;;;;6.47;4.80;;;16.20;89.00;;;;;;5016262;28;20038;-63
2021/05/02 03:39:47;;;;;;;5.85;5.05;;;16.30;88.80;;;;;;5016766;28;20121;-62
2021/05/02 03:42:13;;;;;;;6.80;4.85;;;16.30;88.80;;;;;;5016847;28;20033;-63
2021/05/02 03:44:39;;;;;;;7.32;5.30;;;16.30;88.70;;;;;;5015966;28;20421;-63
2021/05/02 03:47:04;;;;;;;7.05;5.38;;;16.30;88.70;;;;;;5016815;28;20193;-62
2021/05/02 03:49:31;;;;;;;8.27;6.03;;;16.30;88.80;;;;;;5016931;28;20029;-63
2021/05/02 03:51:56;;;;;;;7.20;5.07;;;16.30;88.80;;;;;;5016090;28;20021;-63
2021/05/02 03:54:22;;;;;;;6.85;6.10;;;16.30;88.60;;;;;;5016839;28;20089;-62
2021/05/02 03:56:48;;;;;;;7.68;6.20;;;16.20;88.80;;;;;;5016333;28;20030;-63
2021/05/02 03:59:23;;;;;;;7.88;6.43;;;16.20;89.10;;;;;;5016438;28;20126;-63
2021/05/02 04:01:54;;;;;;;7.32;6.22;;;16.20;89.20;;;;;;5027956;28;20053;-63
2021/05/02 04:04:23;;;;;;;7.50;6.03;;;16.20;89.40;;;;;;5036314;28;20048;-63
2021/05/02 04:06:50;;;;;;;8.10;6.65;;;16.20;89.40;;;;;;5036176;28;20025;-63
2021/05/02 04:09:17;;;;;;;8.63;6.82;;;16.30;89.50;;;;;;5035722;28;20042;-63
2021/05/02 04:11:44;;;;;;;9.23;7.38;;;16.30;89.40;;;;;;5034457;28;20030;-63
2021/05/02 04:14:12;;;;;;;8.27;6.70;;;16.40;89.50;;;;;;5018379;28;20030;-63
2021/05/02 04:16:38;;;;;;;11.65;7.97;;;16.50;89.40;;;;;;5016629;28;20080;-63
2021/05/02 04:19:06;;;;;;;10.00;7.80;;;16.60;89.40;;;;;;5015672;28;20029;-63
2021/05/02 04:21:33;;;;;;;8.65;7.13;;;16.60;89.00;;;;;;5016103;28;20037;-63
2021/05/02 04:23:59;;;;;;;9.20;8.10;;;16.60;88.80;;;;;;5015554;28;20053;-62
2021/05/02 04:26:25;;;;;;;9.38;7.72;;;16.70;88.90;;;;;;5015810;28;20018;-62
2021/05/02 04:28:50;;;;;;;10.95;8.02;;;16.70;88.80;;;;;;5015682;28;20036;-63
2021/05/02 04:31:17;;;;;;;9.65;7.55;;;16.80;89.00;;;;;;5015840;28;20033;-63
2021/05/02 04:33:43;;;;;;;10.77;7.93;;;17.00;90.00;;;;;;5015479;28;20029;-63
2021/05/02 04:36:09;;;;;;;7.85;6.60;;;17.40;90.10;;;;;;5015515;28;20022;-63
2021/05/02 04:38:34;;;;;;;9.02;7.30;;;17.80;88.80;;;;;;5014721;28;20108;-63
2021/05/02 04:41:00;;;;;;;8.70;6.97;;;18.10;87.70;;;;;;5015007;28;20064;-63
2021/05/02 04:43:27;;;;;;;9.70;7.55;;;18.30;85.90;;;;;;5014396;28;20465;-63
2021/05/02 04:45:53;;;;;;;8.70;7.20;;;18.40;84.80;;;;;;5014630;28;20421;-63
2021/05/02 04:48:19;;;;;;;8.95;7.07;;;18.40;84.20;;;;;;5013005;28;20030;-63
2021/05/02 04:50:45;;;;;;;10.93;7.80;;;18.50;84.70;;;;;;5013532;28;20064;-63
2021/05/02 04:53:10;;;;;;;8.95;8.05;;;18.70;84.80;;;;;;5014062;28;20425;-63
2021/05/02 04:55:36;;;;;;;9.80;7.93;;;19.10;83.80;;;;;;5014056;28;20038;-63
2021/05/02 04:58:02;;;;;;;9.05;8.13;;;19.30;82.80;;;;;;5013775;28;20100;-63
2021/05/02 05:00:28;;;;;;;10.55;7.35;;;19.40;82.10;;;;;;5014232;28;20030;-63
2021/05/02 05:02:57;;;;;;;9.75;7.00;;;19.50;81.20;;;;;;5013881;28;20077;-63
2021/05/02 05:05:23;;;;;;;10.85;8.32;;;19.50;81.10;;;;;;5013778;28;20117;-63
2021/05/02 05:07:50;;;;;;;8.55;7.45;;;19.80;82.70;;;;;;5023654;28;20116;-63
2021/05/02 05:10:16;;;;;;;8.75;7.05;;;20.30;82.30;;;;;;5033718;28;20029;-63
2021/05/02 05:12:41;;;;;;;10.43;7.70;;;20.90;80.70;;;;;;5031859;28;20033;-63
2021/05/02 05:15:08;;;;;;;11.38;7.70;;;21.50;78.90;;;;;;5014089;28;20515;-63
2021/05/02 05:17:34;;;;;;;8.50;7.28;;;22.00;77.00;;;;;;5013401;28;20064;-63
2021/05/02 05:20:00;;;;;;;9.25;6.97;;;22.40;75.60;;;;;;5013985;28;20080;-63
2021/05/02 05:22:25;;;;;;;8.18;6.85;;;22.90;74.70;;;;;;5030267;28;20025;-63
2021/05/02 05:24:51;;;;;;;8.73;7.20;;;23.30;72.40;;;;;;5032752;28;20031;-63
2021/05/02 05:27:17;;;;;;;11.35;8.38;;;23.70;70.80;;;;;;5033014;28;20101;-63
2021/05/02 05:29:43;;;;;;;10.15;8.30;;;23.90;68.90;;;;;;5026570;28;20030;-63
2021/05/02 05:32:08;;;;;;;10.98;8.60;;;23.90;67.80;;;;;;5013818;28;20104;-63
2021/05/02 05:34:34;;;;;;;11.20;8.82;;;23.90;67.50;;;;;;5013795;28;20033;-63
2021/05/02 05:37:00;;;;;;;11.43;9.60;;;23.70;67.30;;;;;;5012849;28;20026;-63
2021/05/02 05:39:26;;;;;;;11.57;9.52;;;23.50;68.20;;;;;;5013808;28;20026;-63
2021/05/02 05:41:52;;;;;;;11.68;9.82;;;23.30;67.80;;;;;;5013386;28;20029;-63
2021/05/02 05:44:18;;;;;;;13.80;9.07;;;23.10;67.80;;;;;;5013290;28;20029;-63
2021/05/02 05:46:44;;;;;;;11.82;9.73;;;22.80;68.20;;;;;;5013747;28;20030;-63
2021/05/02 05:49:11;;;;;;;12.75;9.95;;;22.70;68.40;;;;;;5013382;28;20022;-63
2021/05/02 05:51:37;;;;;;;10.63;8.65;;;22.40;68.30;;;;;;5014219;28;20350;-63
2021/05/02 05:54:03;;;;;;;11.05;9.95;;;22.20;69.00;;;;;;5013687;28;20060;-63
2021/05/02 05:56:28;;;;;;;14.30;10.18;;;22.10;69.60;;;;;;5013730;28;20044;-63
2021/05/02 05:58:54;;;;;;;11.57;10.38;;;22.00;69.70;;;;;;5013605;28;20406;-63
2021/05/02 06:01:20;;;;;;;12.27;10.57;;;21.90;70.30;;;;;;5013551;28;20018;-63
2021/05/02 06:03:45;;;;;;;11.35;9.90;;;21.80;70.40;;;;;;5023798;28;20036;-63
2021/05/02 06:06:11;;;;;;;12.75;9.95;;;21.80;70.40;;;;;;5033682;28;20133;-63
2021/05/02 06:08:37;;;;;;;12.77;10.68;;;21.70;70.70;;;;;;5033463;28;20052;-63
2021/05/02 06:11:03;;;;;;;12.68;10.32;;;21.70;70.90;;;;;;5033300;28;20053;-63
2021/05/02 06:13:28;;;;;;;13.25;11.00;;;21.70;71.10;;;;;;5027690;28;20432;-63
2021/05/02 06:15:54;;;;;;;12.10;9.75;;;21.70;71.10;;;;;;5013692;28;20029;-63
2021/05/02 06:18:20;;;;;;;10.88;9.73;;;21.70;70.80;;;;;;5013290;28;20166;-63
2021/05/02 06:20:46;;;;;;;11.57;9.52;;;21.60;71.30;;;;;;5013065;28;20033;-63
2021/05/02 06:23:11;;;;;;;12.20;10.07;;;21.60;70.30;;;;;;5013429;28;20026;-63
2021/05/02 06:25:37;;;;;;;12.52;9.63;;;21.50;70.00;;;;;;5014530;28;20099;-63
2021/05/02 06:28:03;;;;;;;10.25;8.57;;;21.50;70.00;;;;;;5017018;28;20104;-63
2021/05/02 06:30:29;;;;;;;10.90;9.07;;;21.40;69.60;;;;;;5017179;28;20034;-63
2021/05/02 06:32:55;;;;;;;11.57;9.40;;;21.40;69.70;;;;;;5017308;28;20038;-63
2021/05/02 06:35:20;;;;;;;12.48;8.98;;;21.40;69.50;;;;;;5027116;28;20053;-63
2021/05/02 06:37:46;;;;;;;12.20;9.52;;;21.40;69.50;;;;;;5036259;28;20034;-63
2021/05/02 06:40:12;;;;;;;10.25;9.13;;;21.40;69.40;;;;;;5037081;28;20017;-63
2021/05/02 06:42:38;;;;;;;10.05;8.68;;;21.40;69.30;;;;;;5036212;28;20026;-63
2021/05/02 06:45:05;;;;;;;11.70;9.75;;;21.40;69.50;;;;;;5055474;28;20025;-63
2021/05/02 06:47:30;;;;;;;10.00;8.82;;;21.30;69.10;;;;;;5056233;28;20388;-63
2021/05/02 06:49:56;;;;;;;11.90;9.90;;;21.30;69.30;;;;;;5056376;28;20100;-63
2021/05/02 06:52:22;;;;;;;12.55;9.82;;;21.30;69.10;;;;;;5055866;28;20426;-63
2021/05/02 06:54:48;;;;;;;11.73;10.20;;;21.40;69.20;;;;;;5056252;28;20021;-63
2021/05/02 06:57:14;;;;;;;13.80;9.63;;;21.40;69.00;;;;;;5055797;28;20023;-63
2021/05/02 06:59:39;;;;;;;14.70;10.38;;;21.40;68.90;;;;;;5038617;28;20025;-63
2021/05/02 07:02:05;;;;;;;12.15;10.63;;;21.50;68.70;;;;;;5016364;28;20053;-63
2021/05/02 07:04:36;;;;;;;15.00;10.10;;;21.50;68.70;;;;;;5023199;28;20053;-63
2021/05/02 07:07:03;;;;;;;11.70;10.45;;;21.50;68.60;;;;;;5021114;28;20033;-63
2021/05/02 07:09:29;;;;;;;17.10;11.00;;;21.50;68.60;;;;;;5036034;28;20042;-63
2021/05/02 07:11:55;;;;;;;21.63;12.38;;;21.50;68.30;;;;;;5036275;28;20034;-63
2021/05/02 07:14:21;;;;;;;19.23;13.85;;;21.50;68.30;;;;;;5036491;28;20026;-63
2021/05/02 07:16:46;;;;;;;25.38;13.70;;;21.60;68.20;;;;;;5036185;28;20034;-63
2021/05/02 07:19:13;;;;;;;26.73;13.65;;;21.60;68.00;;;;;;5035889;28;20026;-63
2021/05/02 07:21:39;;;;;;;21.60;12.57;;;21.70;68.40;;;;;;5035841;28;20033;-63
2021/05/02 07:24:05;;;;;;;23.15;13.73;;;21.80;68.10;;;;;;5035716;28;20022;-63
2021/05/02 07:26:31;;;;;;;24.80;13.95;;;21.80;67.70;;;;;;5035340;28;20050;-63
2021/05/02 07:28:56;;;;;;;20.23;12.23;;;21.90;67.80;;;;;;5035263;28;20065;-63
2021/05/02 07:31:22;;;;;;;15.25;9.80;;;21.80;67.40;;;;;;5028937;28;20390;-63
2021/05/02 07:33:48;;;;;;;11.25;8.45;;;21.90;67.30;;;;;;5015551;28;20486;-63
2021/05/02 07:36:15;;;;;;;13.40;9.23;;;21.90;66.90;;;;;;5014988;28;20022;-63
2021/05/02 07:38:42;;;;;;;17.60;9.25;;;21.90;66.70;;;;;;5017783;28;20036;-63
2021/05/02 07:41:08;;;;;;;10.60;8.57;;;21.90;66.70;;;;;;5015639;28;20069;-63
2021/05/02 07:43:34;;;;;;;10.48;8.98;;;21.90;66.40;;;;;;5015456;28;20389;-63
2021/05/02 07:46:00;;;;;;;10.18;8.65;;;21.90;66.40;;;;;;5015242;28;20030;-63
2021/05/02 07:48:26;;;;;;;11.38;9.50;;;21.90;66.50;;;;;;5015890;28;20033;-63
2021/05/02 07:50:52;;;;;;;14.57;9.32;;;22.00;66.50;;;;;;5015414;28;20397;-63
2021/05/02 07:53:18;;;;;;;12.48;8.70;;;22.00;66.40;;;;;;5015631;28;20057;-63
2021/05/02 07:55:44;;;;;;;12.18;8.98;;;22.00;66.30;;;;;;5015792;28;20080;-63
2021/05/02 07:58:10;;;;;;;10.95;8.98;;;22.00;66.00;;;;;;5015273;28;20076;-63
2021/05/02 08:00:36;;;;;;;12.77;8.82;;;22.00;66.00;;;;;;5015882;28;20037;-63
2021/05/02 08:03:03;;;;;;;14.43;10.02;;;22.00;65.80;;;;;;5019792;28;20052;-63
2021/05/02 08:05:30;;;;;;;10.85;8.50;;;22.10;65.80;;;;;;5034923;28;20465;-63
2021/05/02 08:07:56;;;;;;;15.38;9.13;;;22.00;65.50;;;;;;5034957;28;20436;-63
2021/05/02 08:10:21;;;;;;;12.82;9.48;;;22.00;65.30;;;;;;5034701;28;20030;-63
2021/05/02 08:12:47;;;;;;;18.38;11.55;;;22.00;65.50;;;;;;5035144;28;20026;-63
2021/05/02 08:15:13;;;;;;;17.65;11.90;;;21.90;65.20;;;;;;5030886;28;20033;-63
2021/05/02 08:17:39;;;;;;;14.98;10.30;;;21.80;65.50;;;;;;5034799;28;20466;-63
2021/05/02 08:20:07;;;;;;;17.50;10.05;;;21.90;65.60;;;;;;5035292;28;20075;-63
2021/05/02 08:22:33;;;;;;;15.85;10.88;;;21.80;65.40;;;;;;5034935;28;20032;-63
2021/05/02 08:24:59;;;;;;;15.40;9.23;;;21.80;65.60;;;;;;5034840;28;20384;-63
2021/05/02 08:27:25;;;;;;;15.10;9.77;;;21.80;66.40;;;;;;5034553;28;20029;-63
2021/05/02 08:29:50;;;;;;;15.05;9.32;;;21.70;65.80;;;;;;5022798;28;20048;-63
2021/05/02 08:32:16;;;;;;;21.60;13.10;;;21.70;65.70;;;;;;5041735;28;20031;-63
2021/05/02 08:34:42;;;;;;;23.23;12.43;;;21.70;65.80;;;;;;5054538;28;20380;-63
2021/05/02 08:37:08;;;;;;;22.27;12.43;;;21.70;66.00;;;;;;5041131;28;20021;-63
2021/05/02 08:39:34;;;;;;;17.17;10.75;;;21.70;65.80;;;;;;5014939;28;20025;-63
2021/05/02 08:42:01;;;;;;;16.88;9.43;;;21.70;65.80;;;;;;5014843;28;20026;-63
2021/05/02 08:44:29;;;;;;;12.10;9.05;;;21.60;65.70;;;;;;5014922;28;20022;-63
2021/05/02 08:46:55;;;;;;;14.38;8.32;;;21.60;65.60;;;;;;5014910;28;20088;-63
2021/05/02 08:49:21;;;;;;;14.32;7.97;;;21.50;65.60;;;;;;5014288;28;20030;-63
2021/05/02 08:51:48;;;;;;;13.60;8.77;;;21.50;65.50;;;;;;5018426;28;20025;-63
2021/05/02 08:54:14;;;;;;;18.08;9.65;;;21.40;65.80;;;;;;5034316;28;20033;-63
2021/05/02 08:56:39;;;;;;;13.10;8.98;;;21.40;66.20;;;;;;5034599;28;20400;-63
2021/05/02 08:59:08;;;;;;;14.55;10.27;;;21.30;66.40;;;;;;5033641;28;20025;-63
2021/05/02 09:01:34;;;;;;;17.10;11.60;;;21.30;66.40;;;;;;5034176;28;20473;-63
2021/05/02 09:04:04;;;;;;;14.27;11.23;;;21.30;66.60;;;;;;5034120;28;20026;-63
2021/05/02 09:06:31;;;;;;;14.85;10.90;;;21.30;66.80;;;;;;5034682;28;20028;-63
2021/05/02 09:09:08;;;;;;;21.08;11.95;;;21.30;67.10;;;;;;5034533;28;20489;-63
2021/05/02 09:11:37;;;;;;;19.60;11.85;;;21.30;67.60;;;;;;5034329;28;20517;-63
2021/05/02 09:14:07;;;;;;;15.07;11.20;;;21.30;67.70;;;;;;5033947;28;20029;-63
2021/05/02 09:16:55;;;;;;;19.58;12.93;;;21.20;67.70;;;;;;5034264;28;20057;-63
2021/05/02 09:19:23;;;;;;;19.77;13.43;;;21.20;67.70;;;;;;5034124;28;20033;-63
2021/05/02 09:21:49;;;;;;;27.63;14.27;;;21.20;68.30;;;;;;5034331;28;20018;-63
2021/05/02 09:24:32;;;;;;;21.25;13.20;;;21.20;68.10;;;;;;5034074;28;20076;-63
2021/05/02 09:27:15;;;;;;;18.20;11.65;;;21.30;68.00;;;;;;5034306;28;20026;-63
2021/05/02 09:29:43;;;;;;;17.77;11.10;;;21.30;68.00;;;;;;5021496;28;20061;-63
2021/05/02 09:32:11;;;;;;;16.38;10.60;;;21.30;68.00;;;;;;5014385;28;20125;-62
2021/05/02 09:34:37;;;;;;;18.63;11.48;;;21.30;68.00;;;;;;5014233;28;20033;-62
2021/05/02 09:37:07;;;;;;;16.88;11.48;;;21.30;67.90;;;;;;5014268;28;20446;-62
2021/05/02 09:39:56;;;;;;;24.45;12.50;;;21.30;68.00;;;;;;5014326;28;20417;-62
2021/05/02 09:42:48;;;;;;;19.08;11.50;;;21.30;68.20;;;;;;5014170;28;20026;-62
2021/05/02 09:45:14;;;;;;;15.40;9.98;;;21.30;68.30;;;;;;5015030;28;20517;-62
2021/05/02 09:47:41;;;;;;;13.90;10.55;;;21.20;68.30;;;;;;5014143;28;20097;-62
2021/05/02 09:50:07;;;;;;;23.92;13.07;;;21.20;68.50;;;;;;5013968;28;20501;-62
2021/05/02 09:52:54;;;;;;;27.77;14.38;;;21.20;69.00;;;;;;5013694;28;20104;-62
2021/05/02 09:55:43;;;;;;;25.48;14.82;;;21.10;69.20;;;;;;5013709;28;20018;-62
2021/05/02 09:58:17;;;;;;;25.00;14.68;;;21.10;69.80;;;;;;5013995;28;20034;-62
2021/05/02 10:00:45;;;;;;;26.67;16.90;;;21.10;70.20;;;;;;5018045;28;20021;-62
2021/05/02 10:03:16;;;;;;;32.70;18.80;;;21.00;70.70;;;;;;5027925;28;20026;-62
2021/05/02 10:05:57;;;;;;;26.70;15.10;;;21.00;71.50;;;;;;5017364;28;20025;-62
2021/05/02 10:08:26;;;;;;;29.08;16.58;;;20.90;71.50;;;;;;5036414;28;20029;-62
2021/05/02 10:10:53;;;;;;;32.90;18.75;;;20.80;71.90;;;;;;5037259;28;20029;-62
2021/05/02 10:13:19;;;;;;;33.83;20.05;;;20.80;72.70;;;;;;5037190;28;20500;-62
2021/05/02 10:15:45;;;;;;;42.03;21.30;;;20.70;72.40;;;;;;5037399;28;20034;-62
2021/05/02 10:18:10;;;;;;;33.08;16.38;;;20.70;72.10;;;;;;5037463;28;20061;-62
2021/05/02 10:20:36;;;;;;;35.78;16.25;;;20.60;72.40;;;;;;5017733;28;20077;-62
2021/05/02 10:23:03;;;;;;;39.10;18.95;;;20.50;71.90;;;;;;5017241;28;20026;-63
2021/05/02 10:25:29;;;;;;;24.63;14.85;;;20.40;72.20;;;;;;5017342;28;20014;-62
2021/05/02 10:27:55;;;;;;;32.90;18.13;;;20.40;72.10;;;;;;5017288;28;20038;-62
2021/05/02 10:30:26;;;;;;;40.72;18.30;;;20.30;72.00;;;;;;5017584;28;20362;-63
2021/05/02 10:32:59;;;;;;;33.90;19.40;;;20.20;72.60;;;;;;5017285;28;20034;-63
2021/05/02 10:35:24;;;;;;;31.55;18.33;;;20.20;72.80;;;;;;5017268;28;20037;-63
2021/05/02 10:37:55;;;;;;;40.90;20.17;;;20.10;73.30;;;;;;5019593;28;20107;-62
2021/05/02 10:40:28;;;;;;;31.75;20.08;;;20.10;73.50;;;;;;5016361;28;20474;-62
2021/05/02 10:43:03;;;;;;;28.90;15.82;;;20.10;73.70;;;;;;5016663;28;20068;-63
2021/05/02 10:45:48;;;;;;;28.13;15.23;;;20.10;73.50;;;;;;5018135;28;20033;-62
2021/05/02 10:48:13;;;;;;;33.75;16.27;;;20.00;73.00;;;;;;5015938;28;20036;-62
2021/05/02 10:50:45;;;;;;;32.97;16.02;;;19.90;73.00;;;;;;5017239;28;20116;-62
2021/05/02 10:53:15;;;;;;;23.67;12.18;;;19.90;73.00;;;;;;5015839;28;20050;-62
2021/05/02 10:55:51;;;;;;;22.33;14.00;;;19.80;73.10;;;;;;5017807;28;20026;-62
2021/05/02 10:58:40;;;;;;;19.80;11.63;;;19.80;73.50;;;;;;5016974;28;20028;-62
2021/05/02 11:01:26;;;;;;;24.25;12.75;;;19.70;73.20;;;;;;5010356;28;20033;-63
2021/05/02 11:03:53;;;;;;;28.40;15.48;;;19.70;73.20;;;;;;5016283;28;20037;-63
2021/05/02 11:06:37;;;;;;;27.45;16.38;;;19.70;73.70;;;;;;5017080;28;20022;-62
2021/05/02 11:09:07;;;;;;;24.83;15.80;;;19.70;73.40;;;;;;5020853;28;20026;-62
2021/05/02 11:11:33;;;;;;;30.13;15.75;;;19.70;73.70;;;;;;5019290;28;20033;-62
2021/05/02 11:14:09;;;;;;;26.50;16.45;;;19.60;73.90;;;;;;5018772;28;20033;-62
2021/05/02 11:16:39;;;;;;;27.00;16.27;;;19.60;74.20;;;;;;5018870;28;20386;-62
2021/05/02 11:19:26;;;;;;;31.30;16.63;;;19.50;75.20;;;;;;5016787;28;20042;-62
2021/05/02 11:21:52;;;;;;;27.50;17.95;;;19.50;74.90;;;;;;5000690;28;20456;-62
2021/05/02 11:24:19;;;;;;;21.98;14.18;;;19.50;75.00;;;;;;5015479;28;20033;-62
2021/05/02 11:26:58;;;;;;;24.35;17.08;;;19.40;75.40;;;;;;5015912;28;20037;-62
2021/05/02 11:32:04;;;;;;;21.00;13.95;;;19.40;75.70;;;;;;5015441;28;20120;-62
2021/05/02 11:34:49;;;;;;;18.77;14.32;;;19.40;75.90;;;;;;5024838;28;20033;-62
2021/05/02 11:37:38;;;;;;;13.88;10.90;;;19.40;75.70;;;;;;5020570;28;20061;-62
2021/05/02 11:40:21;;;;;;;14.93;11.15;;;19.30;76.00;;;;;;5021995;28;20413;-62
2021/05/02 11:43:08;;;;;;;11.55;9.48;;;19.30;76.40;;;;;;5023238;28;20025;-62
2021/05/02 11:45:55;;;;;;;12.32;10.05;;;19.20;76.60;;;;;;5013252;28;20565;-62
2021/05/02 11:48:47;;;;;;;12.18;10.90;;;19.10;77.10;;;;;;5015340;28;20493;-62
2021/05/02 11:51:28;;;;;;;13.10;10.00;;;19.00;77.60;;;;;;5015959;28;21428;-62
2021/05/02 11:53:58;;;;;;;11.43;9.15;;;18.90;78.00;;;;;;5014268;28;20045;-62
2021/05/02 11:56:29;;;;;;;13.63;10.52;;;18.90;78.40;;;;;;5016491;28;20038;-62
2021/05/02 11:59:06;;;;;;;12.93;10.45;;;18.80;78.90;;;;;;5015055;28;20069;-62
2021/05/02 12:01:33;;;;;;;11.38;8.73;;;18.70;79.00;;;;;;5016040;28;20041;-62
2021/05/02 12:04:19;;;;;;;12.57;10.40;;;18.70;79.30;;;;;;5018881;28;20031;-62
2021/05/02 12:06:46;;;;;;;12.68;10.88;;;18.60;79.40;;;;;;5021028;28;20069;-62
2021/05/02 12:09:23;;;;;;;13.60;10.88;;;18.50;79.80;;;;;;5014508;28;20026;-62
2021/05/02 12:12:00;;;;;;;13.10;10.40;;;18.40;80.20;;;;;;5014338;28;20038;-62
2021/05/02 12:14:30;;;;;;;17.80;12.73;;;18.30;80.60;;;;;;5015538;28;20068;-62
2021/05/02 12:16:59;;;;;;;18.50;13.73;;;18.10;81.20;;;;;;5017087;28;20034;-63
2021/05/02 12:19:27;;;;;;;15.70;13.23;;;18.00;81.40;;;;;;5021528;28;20280;-63
2021/05/02 12:21:53;;;;;;;13.40;11.23;;;18.00;81.90;;;;;;5015061;28;20421;-62
2021/05/02 12:24:20;;;;;;;15.43;12.55;;;17.80;82.30;;;;;;5013852;28;20022;-62
2021/05/02 12:26:52;;;;;;;15.15;13.07;;;17.80;82.50;;;;;;5013973;28;20091;-63
2021/05/02 12:29:28;;;;;;;13.93;11.95;;;17.70;82.90;;;;;;5018067;28;20045;-62
2021/05/02 12:32:11;;;;;;;13.32;10.93;;;17.60;82.90;;;;;;5014638;28;20065;-62
2021/05/02 12:34:50;;;;;;;14.25;12.75;;;17.50;82.90;;;;;;5014702;28;20065;-62
2021/05/02 12:37:23;;;;;;;16.50;13.75;;;17.50;83.40;;;;;;5015506;28;20032;-62
2021/05/02 12:39:53;;;;;;;15.82;12.15;;;17.40;84.00;;;;;;5014138;28;20131;-62
2021/05/02 12:42:32;;;;;;;14.88;13.13;;;17.40;84.10;;;;;;5019301;28;20033;-62
2021/05/02 12:44:58;;;;;;;16.92;12.85;;;17.30;84.70;;;;;;5014347;28;20045;-62
2021/05/02 12:47:28;;;;;;;15.85;13.02;;;17.30;84.90;;;;;;5014866;28;20029;-62